Time,TemperatureF,DewpointF,PressureIn,WindDirection,WindDirectionDegrees,WindSpeedMPH,WindSpeedGustMPH,Humidity,HourlyPrecipIn,Conditions,Clouds,dailyrainin,SoftwareType,DateUTC
2013-01-08 00:02:00,47.8,47.3,0.00,WSW,244,0.0,0.0,98,0.00,,---,0.00,VWS V14.01,2013-01-08 08:02:00,
2013-01-08 00:07:00,47.7,47.1,0.00,SW,234,3.6,3.6,98,0.00,,---,0.00,VWS V14.01,2013-01-08 08:07:00,
2013-01-08 00:12:00,47.7,47.1,0.00,West,272,0.0,0.0,98,0.00,,---,0.00,VWS V14.01,2013-01-08 08:12:00,
2013-01-08 00:17:00,47.7,47.1,0.00,West,259,0.0,0.0,98,0.00,,---,0.00,VWS V14.01,2013-01-08 08:17:00,
2013-01-08 00:22:00,47.7,47.1,0.00,WSW,243,0.0,0.0,98,0.00,,---,0.00,VWS V14.01,2013-01-08 08:22:00,
2013-01-08 00:27:00,47.7,47.1,0.00,SSE,151,0.0,2.7,98,0.00,,---,0.00,VWS V14.01,2013-01-08 08:27:00,
2013-01-08 00:32:00,47.7,47.1,0.00,West,267,4.9,4.9,98,0.00,,---,0.00,VWS V14.01,2013-01-08 08:32:00,
2013-01-08 00:37:00,47.7,47.1,0.00,WSW,246,2.7,2.7,98,0.00,,---,0.00,VWS V14.01,2013-01-08 08:37:00,
2013-01-08 00:42:00,47.7,47.1,0.00,SSW,194,0.0,0.0,98,0.00,,---,0.00,VWS V14.01,2013-01-08 08:42:00,
2013-01-08 00:47:00,47.7,47.1,0.00,WNW,288,3.1,3.1,98,0.00,,---,0.00,VWS V14.01,2013-01-08 08:47:00,
2013-01-08 00:52:00,47.7,47.1,0.00,SSW,200,0.0,0.0,98,0.00,,---,0.00,VWS V14.01,2013-01-08 08:52:00,
2013-01-08 00:57:00,47.7,47.1,0.00,West,265,0.0,4.9,98,0.00,,---,0.00,VWS V14.01,2013-01-08 08:57:00,
2013-01-08 01:02:00,47.7,47.1,0.00,WSW,257,0.0,0.0,98,0.00,,---,0.00,VWS V14.01,2013-01-08 09:02:00,
2013-01-08 01:07:00,47.7,47.1,0.00,NW,310,2.7,2.7,98,0.00,,---,0.00,VWS V14.01,2013-01-08 09:07:00,
2013-01-08 01:12:00,47.7,47.1,0.00,ESE,115,0.0,3.1,98,0.00,,---,0.00,VWS V14.01,2013-01-08 09:12:00,
2013-01-08 01:17:00,47.7,47.1,0.00,SW,216,0.0,3.1,98,0.00,,---,0.00,VWS V14.01,2013-01-08 09:17:00,
2013-01-08 01:22:00,47.7,47.1,0.00,SW,220,2.2,2.2,98,0.00,,---,0.00,VWS V14.01,2013-01-08 09:22:00,
2013-01-08 01:27:00,47.7,47.1,0.00,SSW,210,0.0,0.0,98,0.00,,---,0.00,VWS V14.01,2013-01-08 09:27:00,
2013-01-08 01:32:00,47.8,47.3,0.00,WSW,242,2.7,2.7,98,0.00,,---,0.00,VWS V14.01,2013-01-08 09:32:00,
2013-01-08 01:37:00,47.8,47.3,0.00,WSW,248,0.0,0.0,98,0.00,,---,0.00,VWS V14.01,2013-01-08 09:37:00,
2013-01-08 01:42:00,47.8,47.3,0.00,WSW,241,0.0,0.0,98,0.00,,---,0.00,VWS V14.01,2013-01-08 09:42:00,
2013-01-08 01:47:00,47.8,47.3,0.00,WSW,250,0.0,0.0,98,0.00,,---,0.00,VWS V14.01,2013-01-08 09:47:00,
2013-01-08 01:52:00,47.8,47.3,0.00,WSW,250,0.0,0.0,98,0.00,,---,0.00,VWS V14.01,2013-01-08 09:52:00,
2013-01-08 01:57:00,47.7,46.8,0.00,South,172,0.0,0.0,97,0.00,,---,0.00,VWS V14.01,2013-01-08 09:57:00,
2013-01-08 02:02:00,47.7,46.8,0.00,WSW,257,2.2,2.2,97,0.00,,---,0.00,VWS V14.01,2013-01-08 10:02:00,
2013-01-08 02:07:00,47.7,46.8,0.00,West,260,0.0,0.0,97,0.00,,---,0.00,VWS V14.01,2013-01-08 10:07:00,
2013-01-08 02:12:00,47.7,46.8,0.00,WNW,285,0.0,0.0,97,0.00,,---,0.00,VWS V14.01,2013-01-08 10:12:00,
2013-01-08 02:17:00,47.7,46.8,0.00,SW,219,4.9,4.9,97,0.00,,---,0.00,VWS V14.01,2013-01-08 10:17:00,
2013-01-08 02:22:00,47.5,46.7,0.00,WSW,253,0.0,0.0,97,0.00,,---,0.00,VWS V14.01,2013-01-08 10:22:00,
2013-01-08 02:27:00,47.5,46.7,0.00,SE,144,0.0,0.0,97,0.00,,---,0.00,VWS V14.01,2013-01-08 10:27:00,
2013-01-08 02:32:00,47.5,46.4,0.00,South,172,2.7,4.0,96,0.00,,---,0.00,VWS V14.01,2013-01-08 10:32:00,
2013-01-08 02:37:00,47.5,46.4,0.00,South,180,0.0,0.0,96,0.00,,---,0.00,VWS V14.01,2013-01-08 10:37:00,
2013-01-08 02:42:00,47.3,46.2,0.00,SSW,211,0.0,2.7,96,0.00,,---,0.00,VWS V14.01,2013-01-08 10:42:00,
2013-01-08 02:47:00,47.3,46.2,0.00,SSW,199,2.7,2.7,96,0.00,,---,0.00,VWS V14.01,2013-01-08 10:47:00,
2013-01-08 02:52:00,47.3,46.2,0.00,SW,233,0.0,0.0,96,0.00,,---,0.00,VWS V14.01,2013-01-08 10:52:00,
2013-01-08 02:57:00,47.3,46.2,0.00,WSW,241,0.0,0.0,96,0.00,,---,0.00,VWS V14.01,2013-01-08 10:57:00,
2013-01-08 03:02:00,47.3,46.2,0.00,WSW,249,0.0,0.0,96,0.00,,---,0.00,VWS V14.01,2013-01-08 11:02:00,
2013-01-08 03:07:00,47.3,46.2,0.00,WSW,245,0.0,2.7,96,0.00,,---,0.00,VWS V14.01,2013-01-08 11:07:00,
2013-01-08 03:12:00,47.3,46.2,0.00,WSW,251,3.1,3.1,96,0.00,,---,0.00,VWS V14.01,2013-01-08 11:12:00,
2013-01-08 03:17:00,47.1,46.0,0.00,SW,225,0.0,0.0,96,0.00,,---,0.00,VWS V14.01,2013-01-08 11:17:00,
2013-01-08 03:22:00,47.1,46.0,0.00,SW,222,0.0,2.7,96,0.00,,---,0.00,VWS V14.01,2013-01-08 11:22:00,
2013-01-08 03:27:00,47.1,45.8,0.00,SW,217,2.2,2.2,95,0.00,,---,0.00,VWS V14.01,2013-01-08 11:27:00,
2013-01-08 03:32:00,47.1,45.8,0.00,SSW,194,0.0,0.0,95,0.00,,---,0.00,VWS V14.01,2013-01-08 11:32:00,
2013-01-08 03:37:00,47.1,45.8,0.00,West,276,3.6,3.6,95,0.00,,---,0.00,VWS V14.01,2013-01-08 11:37:00,
2013-01-08 03:42:00,46.9,45.6,0.00,West,267,3.1,3.1,95,0.00,,---,0.00,VWS V14.01,2013-01-08 11:42:00,
2013-01-08 03:47:00,46.9,45.6,0.00,West,280,0.0,0.0,95,0.00,,---,0.00,VWS V14.01,2013-01-08 11:47:00,
2013-01-08 03:52:00,46.9,45.6,0.00,WSW,242,0.0,0.0,95,0.00,,---,0.00,VWS V14.01,2013-01-08 11:52:00,
2013-01-08 03:57:00,46.9,45.6,0.00,WSW,247,0.0,0.0,95,0.00,,---,0.00,VWS V14.01,2013-01-08 11:57:00,
2013-01-08 04:02:00,46.9,45.6,0.00,WSW,247,0.0,0.0,95,0.00,,---,0.00,VWS V14.01,2013-01-08 12:02:00,
2013-01-08 04:07:00,46.9,45.6,0.00,SW,229,0.0,0.0,95,0.00,,---,0.00,VWS V14.01,2013-01-08 12:07:00,
2013-01-08 04:12:00,46.9,45.6,0.00,SW,229,0.0,0.0,95,0.00,,---,0.00,VWS V14.01,2013-01-08 12:12:00,
2013-01-08 04:17:00,46.9,45.6,0.00,SW,229,0.0,0.0,95,0.00,,---,0.00,VWS V14.01,2013-01-08 12:17:00,
2013-01-08 04:22:00,46.8,45.4,0.00,SW,229,0.0,0.0,95,0.00,,---,0.00,VWS V14.01,2013-01-08 12:22:00,
2013-01-08 04:27:00,46.8,45.4,0.00,SW,229,0.0,0.0,95,0.00,,---,0.00,VWS V14.01,2013-01-08 12:27:00,
2013-01-08 04:32:00,46.8,45.4,0.00,SW,229,0.0,0.0,95,0.00,,---,0.00,VWS V14.01,2013-01-08 12:32:00,
2013-01-08 04:37:00,46.8,45.4,0.00,SW,229,0.0,0.0,95,0.00,,---,0.00,VWS V14.01,2013-01-08 12:37:00,
2013-01-08 04:41:00,46.8,45.4,0.00,SW,229,0.0,0.0,95,0.00,,---,0.00,VWS V14.01,2013-01-08 12:41:00,
2013-01-08 04:46:00,46.8,45.4,0.00,SW,229,0.0,0.0,95,0.00,,---,0.00,VWS V14.01,2013-01-08 12:46:00,
2013-01-08 04:51:00,46.8,45.4,0.00,SW,224,0.0,0.0,95,0.00,,---,0.00,VWS V14.01,2013-01-08 12:51:00,
2013-01-08 04:56:00,46.8,45.4,0.00,WNW,284,0.0,0.0,95,0.00,,---,0.00,VWS V14.01,2013-01-08 12:56:00,
2013-01-08 05:01:00,46.8,45.4,0.00,SW,225,0.0,3.6,95,0.00,,---,0.00,VWS V14.01,2013-01-08 13:01:00,
2013-01-08 05:06:00,46.8,45.4,0.00,WSW,245,0.0,0.0,95,0.00,,---,0.00,VWS V14.01,2013-01-08 13:06:00,
2013-01-08 05:11:00,46.8,45.4,0.00,SSW,198,0.0,0.0,95,0.00,,---,0.00,VWS V14.01,2013-01-08 13:11:00,
2013-01-08 05:16:00,46.8,45.4,0.00,SW,228,0.0,0.0,95,0.00,,---,0.00,VWS V14.01,2013-01-08 13:16:00,
2013-01-08 05:21:00,46.8,45.4,0.00,SW,233,0.0,0.0,95,0.00,,---,0.00,VWS V14.01,2013-01-08 13:21:00,
2013-01-08 05:26:00,46.8,45.4,0.00,SSW,196,0.0,0.0,95,0.00,,---,0.00,VWS V14.01,2013-01-08 13:26:00,
2013-01-08 05:31:00,46.8,45.4,0.00,SSW,204,0.0,0.0,95,0.00,,---,0.00,VWS V14.01,2013-01-08 13:31:00,
2013-01-08 05:36:00,46.6,45.2,0.00,SSW,202,0.0,0.0,95,0.00,,---,0.00,VWS V14.01,2013-01-08 13:36:00,
2013-01-08 05:41:00,46.6,45.2,0.00,WSW,255,0.0,0.0,95,0.00,,---,0.00,VWS V14.01,2013-01-08 13:41:00,
2013-01-08 05:46:00,46.6,45.2,0.00,West,275,0.0,0.0,95,0.00,,---,0.00,VWS V14.01,2013-01-08 13:46:00,
2013-01-08 05:51:00,46.6,45.2,0.00,West,264,0.0,0.0,95,0.00,,---,0.00,VWS V14.01,2013-01-08 13:51:00,
2013-01-08 05:56:00,46.6,45.2,0.00,West,264,0.0,0.0,95,0.00,,---,0.00,VWS V14.01,2013-01-08 13:56:00,
2013-01-08 06:01:00,46.6,45.2,0.00,SW,230,0.0,0.0,95,0.00,,---,0.00,VWS V14.01,2013-01-08 14:01:00,
2013-01-08 06:06:00,46.6,45.2,0.00,WSW,253,0.0,0.0,95,0.00,,---,0.00,VWS V14.01,2013-01-08 14:06:00,
2013-01-08 06:11:00,46.6,45.2,0.00,SSW,200,0.0,0.0,95,0.00,,---,0.00,VWS V14.01,2013-01-08 14:11:00,
2013-01-08 06:16:00,46.6,45.2,0.00,SSW,207,0.0,0.0,95,0.00,,---,0.00,VWS V14.01,2013-01-08 14:16:00,
2013-01-08 06:21:00,46.6,45.2,0.00,WNW,283,0.0,0.0,95,0.00,,---,0.00,VWS V14.01,2013-01-08 14:21:00,
2013-01-08 06:26:00,46.6,45.2,0.00,SSW,197,0.0,0.0,95,0.00,,---,0.00,VWS V14.01,2013-01-08 14:26:00,
2013-01-08 06:31:00,46.6,45.2,0.00,SSW,208,0.0,0.0,95,0.00,,---,0.00,VWS V14.01,2013-01-08 14:31:00,
2013-01-08 06:36:00,46.6,45.2,0.00,West,262,0.0,0.0,95,0.00,,---,0.00,VWS V14.01,2013-01-08 14:36:00,
2013-01-08 06:41:00,46.4,45.0,0.00,WNW,290,0.0,0.0,95,0.00,,---,0.00,VWS V14.01,2013-01-08 14:41:00,
2013-01-08 06:46:00,46.4,45.0,0.00,WNW,290,0.0,0.0,95,0.04,,---,0.04,VWS V14.01,2013-01-08 14:46:00,
2013-01-08 06:51:00,46.2,45.2,0.00,WNW,290,0.0,0.0,96,0.04,,---,0.04,VWS V14.01,2013-01-08 14:51:00,
2013-01-08 06:56:00,46.2,45.2,0.00,WNW,290,0.0,0.0,96,0.04,,---,0.04,VWS V14.01,2013-01-08 14:56:00,
2013-01-08 07:01:00,46.2,45.2,0.00,SE,129,0.0,0.0,96,0.04,,---,0.04,VWS V14.01,2013-01-08 15:01:00,
2013-01-08 07:06:00,46.2,45.2,0.00,ESE,122,0.0,0.0,96,0.04,,---,0.04,VWS V14.01,2013-01-08 15:06:00,
2013-01-08 07:11:00,45.9,44.8,0.00,ESE,119,0.0,0.0,96,0.04,,---,0.04,VWS V14.01,2013-01-08 15:11:00,
2013-01-08 07:16:00,45.5,44.2,0.00,NW,304,0.0,0.0,95,0.04,,---,0.04,VWS V14.01,2013-01-08 15:16:00,
2013-01-08 07:21:00,45.5,44.2,0.00,WSW,251,0.0,0.0,95,0.04,,---,0.04,VWS V14.01,2013-01-08 15:21:00,
2013-01-08 07:26:00,45.5,44.2,0.00,WSW,251,0.0,0.0,95,0.04,,---,0.04,VWS V14.01,2013-01-08 15:26:00,
2013-01-08 07:31:00,45.1,43.8,0.00,WSW,251,0.0,0.0,95,0.04,,---,0.31,VWS V14.01,2013-01-08 15:31:00,
2013-01-08 07:36:00,45.0,43.6,0.00,ESE,123,2.7,2.7,95,0.04,,---,0.04,VWS V14.01,2013-01-08 15:36:00,
2013-01-08 07:41:00,45.0,43.6,0.00,SE,135,0.0,0.0,95,0.04,,---,0.04,VWS V14.01,2013-01-08 15:41:00,
2013-01-08 07:46:00,44.6,43.3,0.00,SE,136,0.0,0.0,95,0.00,,---,0.04,VWS V14.01,2013-01-08 15:46:00,
2013-01-08 07:51:00,44.4,43.1,0.00,SE,138,0.0,0.0,95,0.04,,---,0.08,VWS V14.01,2013-01-08 15:51:00,
2013-01-08 07:56:00,44.2,43.2,0.00,SE,135,0.0,0.0,96,0.04,,---,0.08,VWS V14.01,2013-01-08 15:56:00,
2013-01-08 08:01:00,44.2,43.2,0.00,SE,129,0.0,0.0,96,0.04,,---,0.08,VWS V14.01,2013-01-08 16:01:00,
2013-01-08 08:06:00,44.1,43.0,0.00,SE,129,0.0,0.0,96,0.04,,---,0.08,VWS V14.01,2013-01-08 16:06:00,
2013-01-08 08:11:00,44.1,43.0,0.00,SE,129,0.0,0.0,96,0.04,,---,0.08,VWS V14.01,2013-01-08 16:11:00,
2013-01-08 08:16:00,44.1,43.0,0.00,SE,129,0.0,0.0,96,0.04,,---,0.08,VWS V14.01,2013-01-08 16:16:00,
2013-01-08 08:21:00,44.1,43.0,0.00,SE,129,0.0,0.0,96,0.04,,---,0.08,VWS V14.01,2013-01-08 16:21:00,
2013-01-08 08:26:00,43.9,42.8,0.00,SE,129,0.0,0.0,96,0.04,,---,0.08,VWS V14.01,2013-01-08 16:26:00,
2013-01-08 08:31:00,43.9,42.8,0.00,SE,128,0.0,0.0,96,0.04,,---,0.08,VWS V14.01,2013-01-08 16:31:00,
2013-01-08 08:36:00,43.9,42.8,0.00,SE,128,0.0,0.0,96,0.04,,---,0.08,VWS V14.01,2013-01-08 16:36:00,
2013-01-08 08:41:00,43.7,42.6,0.00,NE,56,0.0,0.0,96,0.04,,---,0.08,VWS V14.01,2013-01-08 16:41:00,
2013-01-08 08:46:00,43.7,42.6,0.00,East,97,0.0,0.0,96,0.04,,---,0.08,VWS V14.01,2013-01-08 16:46:00,
2013-01-08 08:51:00,43.7,42.6,0.00,ESE,119,0.0,0.0,96,0.00,,---,0.08,VWS V14.01,2013-01-08 16:51:00,
2013-01-08 08:56:00,43.7,42.6,0.00,ESE,119,0.0,0.0,96,0.04,,---,0.12,VWS V14.01,2013-01-08 16:56:00,
2013-01-08 09:01:00,43.5,42.5,0.00,East,84,0.0,0.0,96,0.04,,---,0.12,VWS V14.01,2013-01-08 17:01:00,
2013-01-08 09:06:00,43.5,42.5,0.00,East,85,0.0,0.0,96,0.04,,---,0.12,VWS V14.01,2013-01-08 17:06:00,
2013-01-08 09:11:00,43.5,42.5,0.00,East,85,0.0,0.0,96,0.04,,---,0.12,VWS V14.01,2013-01-08 17:11:00,
2013-01-08 09:16:00,43.5,42.5,0.00,SE,139,0.0,0.0,96,0.04,,---,0.12,VWS V14.01,2013-01-08 17:16:00,
2013-01-08 09:21:00,43.3,42.3,0.00,ESE,120,0.0,0.0,96,0.04,,---,0.12,VWS V14.01,2013-01-08 17:21:00,
2013-01-08 09:26:00,43.3,42.3,0.00,South,170,0.0,0.0,96,0.04,,---,0.12,VWS V14.01,2013-01-08 17:26:00,
2013-01-08 09:31:00,43.3,42.3,0.00,WNW,296,0.0,0.0,96,0.04,,---,0.12,VWS V14.01,2013-01-08 17:31:00,
2013-01-08 09:36:00,43.3,42.3,0.00,South,173,0.0,0.0,96,0.04,,---,0.12,VWS V14.01,2013-01-08 17:36:00,
2013-01-08 09:41:00,43.3,42.3,0.00,South,171,0.0,0.0,96,0.04,,---,0.12,VWS V14.01,2013-01-08 17:41:00,
2013-01-08 09:46:00,43.3,42.5,0.00,ENE,57,0.0,0.0,97,0.08,,---,0.16,VWS V14.01,2013-01-08 17:46:00,
2013-01-08 09:51:00,43.3,42.5,0.00,NE,42,0.0,0.0,97,0.08,,---,0.16,VWS V14.01,2013-01-08 17:51:00,
2013-01-08 09:56:00,43.3,42.5,0.00,NE,52,0.0,0.0,97,0.04,,---,0.16,VWS V14.01,2013-01-08 17:56:00,
2013-01-08 10:01:00,43.3,42.5,0.00,ENE,61,0.0,0.0,97,0.04,,---,0.16,VWS V14.01,2013-01-08 18:01:00,
2013-01-08 10:06:00,43.3,42.5,0.00,South,175,3.6,3.6,97,0.04,,---,0.16,VWS V14.01,2013-01-08 18:06:00,
2013-01-08 10:11:00,43.3,42.5,0.00,NE,43,2.7,2.7,97,0.04,,---,0.16,VWS V14.01,2013-01-08 18:11:00,
2013-01-08 10:16:00,43.3,42.5,0.00,South,169,0.0,2.2,97,0.04,,---,0.16,VWS V14.01,2013-01-08 18:16:00,
2013-01-08 10:21:00,43.3,42.5,0.00,NE,52,2.7,2.7,97,0.04,,---,0.16,VWS V14.01,2013-01-08 18:21:00,
2013-01-08 10:26:00,43.5,42.7,0.00,ESE,103,2.7,2.7,97,0.04,,---,0.16,VWS V14.01,2013-01-08 18:26:00,
2013-01-08 10:31:00,43.5,42.7,0.00,ENE,74,4.0,4.0,97,0.04,,---,0.16,VWS V14.01,2013-01-08 18:31:00,
2013-01-08 10:36:00,43.5,42.7,0.00,ESE,120,0.0,0.0,97,0.04,,---,0.16,VWS V14.01,2013-01-08 18:36:00,
2013-01-08 10:41:00,43.5,42.7,0.00,WSW,237,0.0,0.0,97,0.04,,---,0.16,VWS V14.01,2013-01-08 18:41:00,
2013-01-08 10:46:00,43.7,43.2,0.00,East,100,0.0,0.0,98,0.00,,---,0.16,VWS V14.01,2013-01-08 18:46:00,
2013-01-08 10:51:00,43.7,43.2,0.00,SSW,205,0.0,0.0,98,0.00,,---,0.16,VWS V14.01,2013-01-08 18:51:00,
2013-01-08 10:56:00,43.7,43.2,0.00,East,84,0.0,0.0,98,0.00,,---,0.16,VWS V14.01,2013-01-08 18:56:00,
2013-01-08 11:01:00,43.7,43.2,0.00,East,84,0.0,0.0,98,0.00,,---,0.16,VWS V14.01,2013-01-08 19:01:00,
2013-01-08 11:06:00,43.7,43.2,0.00,East,97,0.0,0.0,98,0.00,,---,0.16,VWS V14.01,2013-01-08 19:06:00,
2013-01-08 11:11:00,43.9,43.3,0.00,North,357,0.0,0.0,98,0.00,,---,0.16,VWS V14.01,2013-01-08 19:11:00,
2013-01-08 11:16:00,44.1,43.5,0.00,North,357,0.0,0.0,98,0.00,,---,0.16,VWS V14.01,2013-01-08 19:16:00,
2013-01-08 11:21:00,44.1,43.5,0.00,West,273,0.0,0.0,98,0.00,,---,0.16,VWS V14.01,2013-01-08 19:21:00,
2013-01-08 11:26:00,44.1,43.5,0.00,West,273,0.0,0.0,98,0.00,,---,0.16,VWS V14.01,2013-01-08 19:26:00,
2013-01-08 11:31:00,44.1,43.5,0.00,West,273,0.0,0.0,98,0.00,,---,0.16,VWS V14.01,2013-01-08 19:31:00,
2013-01-08 11:36:00,44.2,43.7,0.00,West,273,0.0,0.0,98,0.00,,---,0.16,VWS V14.01,2013-01-08 19:36:00,
2013-01-08 11:41:00,44.2,43.7,0.00,West,273,0.0,0.0,98,0.00,,---,0.16,VWS V14.01,2013-01-08 19:41:00,
2013-01-08 11:46:00,44.4,43.9,0.00,West,273,0.0,0.0,98,0.00,,---,0.16,VWS V14.01,2013-01-08 19:46:00,
2013-01-08 11:51:00,44.4,43.9,0.00,West,273,0.0,0.0,98,0.00,,---,0.16,VWS V14.01,2013-01-08 19:51:00,
2013-01-08 11:56:00,44.4,43.9,0.00,West,273,0.0,0.0,98,0.00,,---,0.16,VWS V14.01,2013-01-08 19:56:00,
2013-01-08 12:01:00,44.6,44.1,0.00,West,273,0.0,0.0,98,0.00,,---,0.16,VWS V14.01,2013-01-08 20:01:00,
2013-01-08 12:06:00,44.8,44.2,0.00,West,273,0.0,0.0,98,0.00,,---,0.16,VWS V14.01,2013-01-08 20:06:00,
2013-01-08 12:11:00,44.8,44.2,0.00,West,273,0.0,0.0,98,0.04,,---,0.20,VWS V14.01,2013-01-08 20:11:00,
2013-01-08 12:16:00,45.0,44.4,0.00,West,273,0.0,0.0,98,0.04,,---,0.20,VWS V14.01,2013-01-08 20:16:00,
2013-01-08 12:21:00,45.0,44.4,0.00,West,273,0.0,0.0,98,0.04,,---,0.20,VWS V14.01,2013-01-08 20:21:00,
2013-01-08 12:26:00,45.1,44.6,0.00,West,274,0.0,0.0,98,0.04,,---,0.20,VWS V14.01,2013-01-08 20:26:00,
2013-01-08 12:31:00,45.1,44.6,0.00,West,274,0.0,0.0,98,0.04,,---,0.20,VWS V14.01,2013-01-08 20:31:00,
2013-01-08 12:36:00,45.3,44.8,0.00,West,274,0.0,0.0,98,0.04,,---,0.20,VWS V14.01,2013-01-08 20:36:00,
2013-01-08 12:41:00,45.5,45.0,0.00,SSW,206,0.0,0.0,98,0.04,,---,0.20,VWS V14.01,2013-01-08 20:41:00,
2013-01-08 12:46:00,45.7,45.2,0.00,West,266,0.0,0.0,98,0.04,,---,0.20,VWS V14.01,2013-01-08 20:46:00,
2013-01-08 12:51:00,45.7,45.2,0.00,WSW,251,0.0,0.0,98,0.04,,---,0.20,VWS V14.01,2013-01-08 20:51:00,
2013-01-08 12:56:00,46.4,45.9,0.00,NE,56,2.2,2.2,98,0.04,,---,0.20,VWS V14.01,2013-01-08 20:56:00,
2013-01-08 13:01:00,46.4,45.9,0.00,NE,56,2.2,2.2,98,0.04,,---,0.20,VWS V14.01,2013-01-08 21:01:00,
2013-01-08 13:06:00,47.1,46.6,0.00,South,188,0.0,0.0,98,0.04,,---,0.20,VWS V14.01,2013-01-08 21:06:00,
2013-01-08 13:11:00,47.8,47.3,0.00,WSW,254,0.0,0.0,98,0.00,,---,0.20,VWS V14.01,2013-01-08 21:11:00,
2013-01-08 13:16:00,47.8,47.3,0.00,WSW,248,3.1,3.1,98,0.00,,---,0.20,VWS V14.01,2013-01-08 21:16:00,
2013-01-08 13:21:00,48.7,48.2,0.00,SSE,159,8.3,8.3,98,0.00,,---,0.20,VWS V14.01,2013-01-08 21:21:00,
2013-01-08 13:26:00,48.7,48.2,0.00,West,259,8.3,8.3,98,0.00,,---,0.20,VWS V14.01,2013-01-08 21:26:00,
2013-01-08 13:31:00,49.5,48.9,0.00,South,183,5.4,8.3,98,0.00,,---,0.20,VWS V14.01,2013-01-08 21:31:00,
2013-01-08 13:36:00,49.5,48.9,0.00,South,189,3.6,3.6,98,0.00,,---,0.20,VWS V14.01,2013-01-08 21:36:00,
2013-01-08 13:41:00,49.8,49.3,0.00,WNW,285,8.3,8.3,98,0.00,,---,0.20,VWS V14.01,2013-01-08 21:41:00,
2013-01-08 13:46:00,49.8,49.3,0.00,WNW,285,8.3,8.3,98,0.00,,---,0.20,VWS V14.01,2013-01-08 21:46:00,
2013-01-08 13:51:00,49.8,49.3,0.00,WNW,285,2.2,2.2,98,0.00,,---,0.20,VWS V14.01,2013-01-08 21:51:00,
2013-01-08 13:56:00,50.2,49.6,0.00,ENE,72,2.7,2.7,98,0.00,,---,0.20,VWS V14.01,2013-01-08 21:56:00,
2013-01-08 14:01:00,50.2,49.6,0.00,SSW,206,2.2,2.2,98,0.00,,---,0.20,VWS V14.01,2013-01-08 22:01:00,
2013-01-08 14:06:00,50.2,49.6,0.00,SSW,206,2.2,2.2,98,0.00,,---,0.20,VWS V14.01,2013-01-08 22:06:00,
2013-01-08 14:11:00,50.4,49.8,0.00,SE,139,0.0,0.0,98,0.04,,---,0.24,VWS V14.01,2013-01-08 22:11:00,
2013-01-08 14:16:00,50.4,49.8,0.00,SE,139,0.0,0.0,98,0.04,,---,0.24,VWS V14.01,2013-01-08 22:16:00,
2013-01-08 14:21:00,50.4,49.8,0.00,SE,139,0.0,0.0,98,0.04,,---,0.24,VWS V14.01,2013-01-08 22:21:00,
2013-01-08 14:26:00,50.4,49.8,0.00,WSW,239,0.0,0.0,98,0.04,,---,0.24,VWS V14.01,2013-01-08 22:26:00,
2013-01-08 14:31:00,50.5,50.0,0.00,North,349,0.0,0.0,98,0.04,,---,0.24,VWS V14.01,2013-01-08 22:31:00,
2013-01-08 14:36:00,50.5,50.0,0.00,SE,132,0.0,0.0,98,0.04,,---,0.24,VWS V14.01,2013-01-08 22:36:00,
2013-01-08 14:41:00,50.5,50.0,0.00,SE,132,0.0,0.0,98,0.04,,---,0.24,VWS V14.01,2013-01-08 22:41:00,
2013-01-08 14:46:00,50.5,50.0,0.00,WNW,299,3.1,3.1,98,0.04,,---,0.24,VWS V14.01,2013-01-08 22:46:00,
2013-01-08 14:51:00,50.5,50.0,0.00,WSW,244,0.0,0.0,98,0.08,,---,0.28,VWS V14.01,2013-01-08 22:51:00,
2013-01-08 14:56:00,50.5,50.0,0.00,WSW,255,2.7,2.7,98,0.08,,---,0.28,VWS V14.01,2013-01-08 22:56:00,
2013-01-08 15:01:00,50.7,50.2,0.00,WSW,257,0.0,0.0,98,0.08,,---,0.28,VWS V14.01,2013-01-08 23:01:00,
2013-01-08 15:06:00,50.7,50.2,0.00,WSW,245,0.0,0.0,98,0.08,,---,0.28,VWS V14.01,2013-01-08 23:06:00,
2013-01-08 15:11:00,50.7,50.2,0.00,WSW,245,0.0,0.0,98,0.04,,---,0.28,VWS V14.01,2013-01-08 23:11:00,
2013-01-08 15:16:00,50.9,50.4,0.00,WNW,295,0.0,0.0,98,0.04,,---,0.28,VWS V14.01,2013-01-08 23:16:00,
2013-01-08 15:21:00,50.9,50.4,0.00,WSW,255,0.0,0.0,98,0.04,,---,0.28,VWS V14.01,2013-01-08 23:21:00,
2013-01-08 15:26:00,50.9,50.4,0.00,SW,236,0.0,0.0,98,0.04,,---,0.28,VWS V14.01,2013-01-08 23:26:00,
2013-01-08 15:31:00,50.9,50.4,0.00,SW,233,0.0,0.0,98,0.04,,---,0.28,VWS V14.01,2013-01-08 23:31:00,
2013-01-08 15:36:00,51.1,50.5,0.00,SW,233,0.0,0.0,98,0.08,,---,0.31,VWS V14.01,2013-01-08 23:36:00,
2013-01-08 15:41:00,51.1,50.5,0.00,WSW,246,0.0,0.0,98,0.08,,---,0.31,VWS V14.01,2013-01-08 23:41:00,
2013-01-08 15:46:00,51.1,50.5,0.00,ESE,117,0.0,0.0,98,0.12,,---,0.35,VWS V14.01,2013-01-08 23:46:00,
2013-01-08 15:51:00,51.1,50.5,0.00,SSE,160,0.0,0.0,98,0.08,,---,0.35,VWS V14.01,2013-01-08 23:51:00,
2013-01-08 15:56:00,51.1,50.5,0.00,SSE,160,0.0,0.0,98,0.08,,---,0.35,VWS V14.01,2013-01-08 23:56:00,
2013-01-08 16:01:00,51.3,50.7,0.00,SSE,167,0.0,0.0,98,0.08,,---,0.35,VWS V14.01,2013-01-09 00:01:00,
2013-01-08 16:06:00,51.3,50.7,0.00,SW,231,2.2,2.2,98,0.08,,---,0.35,VWS V14.01,2013-01-09 00:06:00,
2013-01-08 16:11:00,51.3,50.7,0.00,SSW,211,0.0,0.0,98,0.08,,---,0.35,VWS V14.01,2013-01-09 00:11:00,
2013-01-08 16:16:00,51.3,50.7,0.00,SSW,211,0.0,0.0,98,0.08,,---,0.35,VWS V14.01,2013-01-09 00:16:00,
2013-01-08 16:21:00,51.4,50.9,0.00,West,261,2.2,2.2,98,0.08,,---,0.35,VWS V14.01,2013-01-09 00:21:00,
2013-01-08 16:26:00,51.4,50.9,0.00,WNW,286,2.7,2.7,98,0.08,,---,0.35,VWS V14.01,2013-01-09 00:26:00,
2013-01-08 16:31:00,51.6,51.1,0.00,WNW,286,2.7,2.7,98,0.08,,---,0.35,VWS V14.01,2013-01-09 00:31:00,
2013-01-08 16:36:00,51.6,51.1,0.00,NNW,328,3.1,3.1,98,0.04,,---,0.35,VWS V14.01,2013-01-09 00:36:00,
2013-01-08 16:41:00,51.6,51.1,0.00,NNW,328,3.1,3.1,98,0.04,,---,0.35,VWS V14.01,2013-01-09 00:41:00,
2013-01-08 16:46:00,51.8,51.3,0.00,WSW,250,2.2,2.2,98,0.00,,---,0.35,VWS V14.01,2013-01-09 00:46:00,
2013-01-08 16:51:00,51.8,51.3,0.00,WSW,250,2.2,2.2,98,0.00,,---,0.35,VWS V14.01,2013-01-09 00:51:00,
2013-01-08 16:56:00,52.0,51.4,0.00,WSW,257,2.7,5.8,98,0.00,,---,0.35,VWS V14.01,2013-01-09 00:56:00,
2013-01-08 17:01:00,52.0,51.4,0.00,SW,220,5.4,5.4,98,0.00,,---,0.35,VWS V14.01,2013-01-09 01:01:00,
2013-01-08 17:06:00,52.0,51.4,0.00,SW,220,5.4,5.4,98,0.00,,---,0.35,VWS V14.01,2013-01-09 01:06:00,
2013-01-08 17:11:00,52.0,51.4,0.00,South,190,2.2,2.2,98,0.00,,---,0.35,VWS V14.01,2013-01-09 01:11:00,
2013-01-08 17:16:00,52.0,51.4,0.00,SSW,196,5.4,5.4,98,0.00,,---,0.35,VWS V14.01,2013-01-09 01:16:00,
2013-01-08 17:21:00,52.2,51.6,0.00,SSW,196,5.4,5.4,98,0.00,,---,0.35,VWS V14.01,2013-01-09 01:21:00,
2013-01-08 17:26:00,52.2,51.6,0.00,South,178,8.1,8.1,98,0.00,,---,0.35,VWS V14.01,2013-01-09 01:26:00,
2013-01-08 17:31:00,52.2,51.6,0.00,WSW,251,7.6,7.6,98,0.00,,---,0.35,VWS V14.01,2013-01-09 01:31:00,
2013-01-08 17:36:00,52.2,51.6,0.00,West,277,5.4,5.4,98,0.00,,---,0.35,VWS V14.01,2013-01-09 01:36:00,
2013-01-08 17:41:00,52.3,51.8,0.00,West,277,5.4,5.4,98,0.04,,---,0.39,VWS V14.01,2013-01-09 01:41:00,
2013-01-08 17:46:00,52.3,51.8,0.00,West,277,5.4,5.4,98,0.04,,---,0.39,VWS V14.01,2013-01-09 01:46:00,
2013-01-08 17:51:00,52.3,51.8,0.00,South,187,0.0,0.0,98,0.04,,---,0.39,VWS V14.01,2013-01-09 01:51:00,
2013-01-08 17:56:00,52.3,51.8,0.00,WSW,239,3.1,3.1,98,0.04,,---,0.39,VWS V14.01,2013-01-09 01:56:00,
2013-01-08 18:01:00,52.3,51.8,0.00,WNW,289,0.0,0.0,98,0.04,,---,0.39,VWS V14.01,2013-01-09 02:01:00,
2013-01-08 18:06:00,52.5,52.0,0.00,West,267,2.7,2.7,98,0.04,,---,0.39,VWS V14.01,2013-01-09 02:06:00,
2013-01-08 18:11:00,52.3,51.8,0.00,West,267,2.7,2.7,98,0.04,,---,0.39,VWS V14.01,2013-01-09 02:11:00,
2013-01-08 18:16:00,52.3,51.8,0.00,West,272,3.6,3.6,98,0.04,,---,0.39,VWS V14.01,2013-01-09 02:16:00,
2013-01-08 18:21:00,52.3,51.8,0.00,WSW,243,0.0,0.0,98,0.04,,---,0.39,VWS V14.01,2013-01-09 02:21:00,
2013-01-08 18:26:00,52.3,51.8,0.00,WSW,239,0.0,0.0,98,0.04,,---,0.39,VWS V14.01,2013-01-09 02:26:00,
2013-01-08 18:31:00,52.3,51.8,0.00,West,260,13.2,13.2,98,0.04,,---,0.39,VWS V14.01,2013-01-09 02:31:00,
2013-01-08 18:36:00,52.3,51.8,0.00,WNW,297,4.0,4.0,98,0.04,,---,0.39,VWS V14.01,2013-01-09 02:36:00,
2013-01-08 18:41:00,52.3,51.8,0.00,SW,217,0.0,4.0,98,0.04,,---,0.39,VWS V14.01,2013-01-09 02:41:00,
2013-01-08 18:46:00,52.3,51.8,0.00,WSW,239,0.0,0.0,98,0.00,,---,0.39,VWS V14.01,2013-01-09 02:46:00,
2013-01-08 18:50:00,52.5,52.0,0.00,SW,224,2.2,2.2,98,0.00,,---,0.39,VWS V14.01,2013-01-09 02:50:00,
2013-01-08 18:55:00,52.5,52.0,0.00,SSW,213,5.4,5.4,98,0.00,,---,0.39,VWS V14.01,2013-01-09 02:55:00,
2013-01-08 19:00:00,52.5,52.0,0.00,WSW,250,4.0,4.0,98,0.00,,---,0.39,VWS V14.01,2013-01-09 03:00:00,
2013-01-08 19:05:00,52.5,52.0,0.00,WNW,303,2.7,2.7,98,0.00,,---,0.39,VWS V14.01,2013-01-09 03:05:00,
2013-01-08 19:10:00,52.5,52.0,0.00,South,170,3.6,3.6,98,0.00,,---,0.39,VWS V14.01,2013-01-09 03:10:00,
2013-01-08 19:15:00,52.5,52.0,0.00,West,274,4.0,4.0,98,0.00,,---,0.39,VWS V14.01,2013-01-09 03:15:00,
2013-01-08 19:20:00,52.7,52.2,0.00,West,264,0.0,0.0,98,0.00,,---,0.39,VWS V14.01,2013-01-09 03:20:00,
2013-01-08 19:25:00,52.7,52.2,0.00,NNE,33,0.0,0.0,98,0.00,,---,0.39,VWS V14.01,2013-01-09 03:25:00,
2013-01-08 19:30:00,52.7,52.2,0.00,WSW,258,3.6,3.6,98,0.00,,---,0.39,VWS V14.01,2013-01-09 03:30:00,
2013-01-08 19:35:00,52.7,52.2,0.00,WNW,297,0.0,0.0,98,0.00,,---,0.39,VWS V14.01,2013-01-09 03:35:00,
2013-01-08 19:40:00,52.7,52.2,0.00,NNE,31,0.0,0.0,98,0.00,,---,0.39,VWS V14.01,2013-01-09 03:40:00,
2013-01-08 19:45:00,52.9,52.3,0.00,West,264,2.7,2.7,98,0.00,,---,0.39,VWS V14.01,2013-01-09 03:45:00,
2013-01-08 19:50:00,52.9,52.3,0.00,NE,42,2.2,2.2,98,0.00,,---,0.39,VWS V14.01,2013-01-09 03:50:00,
2013-01-08 19:55:00,52.9,52.3,0.00,West,261,0.0,0.0,98,0.00,,---,0.39,VWS V14.01,2013-01-09 03:55:00,
2013-01-08 20:00:00,52.9,52.3,0.00,WSW,250,3.6,3.6,98,0.00,,---,0.39,VWS V14.01,2013-01-09 04:00:00,
2013-01-08 20:05:00,53.1,52.5,0.00,WSW,248,5.8,5.8,98,0.00,,---,0.39,VWS V14.01,2013-01-09 04:05:00,
2013-01-08 20:10:00,53.1,52.5,0.00,NW,324,5.4,5.4,98,0.00,,---,0.39,VWS V14.01,2013-01-09 04:10:00,
2013-01-08 20:15:00,53.1,52.5,0.00,WSW,258,2.7,2.7,98,0.00,,---,0.39,VWS V14.01,2013-01-09 04:15:00,
2013-01-08 20:20:00,53.2,52.7,0.00,West,271,0.0,0.0,98,0.00,,---,0.39,VWS V14.01,2013-01-09 04:20:00,
2013-01-08 20:25:00,53.4,52.9,0.00,SSW,211,4.0,4.0,98,0.00,,---,0.39,VWS V14.01,2013-01-09 04:25:00,
2013-01-08 20:30:00,53.4,52.9,0.00,WNW,291,2.7,2.7,98,0.00,,---,0.39,VWS V14.01,2013-01-09 04:30:00,
2013-01-08 20:35:00,53.6,53.0,0.00,SSW,201,3.6,3.6,98,0.00,,---,0.39,VWS V14.01,2013-01-09 04:35:00,
2013-01-08 20:40:00,53.6,53.0,0.00,East,83,8.1,8.1,98,0.00,,---,0.39,VWS V14.01,2013-01-09 04:40:00,
2013-01-08 20:45:00,53.6,53.0,0.00,ENE,72,0.0,0.0,98,0.00,,---,0.39,VWS V14.01,2013-01-09 04:45:00,
2013-01-08 20:50:00,53.8,53.2,0.00,SW,235,6.3,8.1,98,0.00,,---,0.39,VWS V14.01,2013-01-09 04:50:00,
2013-01-08 20:55:00,53.8,53.2,0.00,West,275,0.0,0.0,98,0.00,,---,0.39,VWS V14.01,2013-01-09 04:55:00,
2013-01-08 21:00:00,53.8,53.2,0.00,West,278,13.2,13.2,98,0.00,,---,0.39,VWS V14.01,2013-01-09 05:00:00,
2013-01-08 21:03:00,53.8,53.2,0.00,South,181,0.0,0.0,98,0.00,,---,0.39,VWS V14.01,2013-01-09 05:03:00,
2013-01-08 21:08:00,53.8,53.2,0.00,North,4,0.0,0.0,98,0.00,,---,0.39,VWS V14.01,2013-01-09 05:08:00,
2013-01-08 21:13:00,53.8,53.2,0.00,West,261,0.0,0.0,98,0.00,,---,0.39,VWS V14.01,2013-01-09 05:13:00,
2013-01-08 21:17:00,53.8,53.2,0.00,SW,231,5.8,5.8,98,0.00,,---,0.39,VWS V14.01,2013-01-09 05:17:00,
2013-01-08 21:22:00,53.8,53.2,0.00,West,264,0.0,0.0,98,0.00,,---,0.39,VWS V14.01,2013-01-09 05:22:00,
2013-01-08 21:27:00,53.6,53.0,0.00,WSW,255,2.7,8.3,98,0.00,,---,0.39,VWS V14.01,2013-01-09 05:27:00,
2013-01-08 21:32:00,53.4,52.9,0.00,NW,314,0.0,2.7,98,0.00,,---,0.39,VWS V14.01,2013-01-09 05:32:00,
2013-01-08 21:37:00,53.4,52.9,0.00,SW,223,0.0,0.0,98,0.04,,---,0.43,VWS V14.01,2013-01-09 05:37:00,
2013-01-08 21:42:00,53.2,52.7,0.00,SSW,210,4.0,6.3,98,0.04,,---,0.43,VWS V14.01,2013-01-09 05:42:00,
2013-01-08 21:47:00,53.2,52.7,0.00,West,264,2.7,2.7,98,0.04,,---,0.43,VWS V14.01,2013-01-09 05:47:00,
2013-01-08 21:52:00,52.9,52.3,0.00,WSW,243,4.9,4.9,98,0.04,,---,0.43,VWS V14.01,2013-01-09 05:52:00,
2013-01-08 21:57:00,52.9,52.3,0.00,SSE,153,2.2,2.2,98,0.04,,---,0.43,VWS V14.01,2013-01-09 05:57:00,
2013-01-08 22:02:00,52.9,52.3,0.00,SW,217,0.0,0.0,98,0.04,,---,0.43,VWS V14.01,2013-01-09 06:02:00,
2013-01-08 22:07:00,52.7,52.2,0.00,West,281,5.8,8.1,98,0.04,,---,0.43,VWS V14.01,2013-01-09 06:07:00,
2013-01-08 22:12:00,52.7,52.2,0.00,SW,231,0.0,0.0,98,0.08,,---,0.47,VWS V14.01,2013-01-09 06:12:00,
2013-01-08 22:17:00,52.5,52.0,0.00,SW,235,0.0,0.0,98,0.08,,---,0.47,VWS V14.01,2013-01-09 06:17:00,
2013-01-08 22:22:00,52.3,51.8,0.00,South,191,3.6,3.6,98,0.08,,---,0.47,VWS V14.01,2013-01-09 06:22:00,
2013-01-08 22:27:00,52.3,51.8,0.00,WSW,239,2.2,2.2,98,0.08,,---,0.47,VWS V14.01,2013-01-09 06:27:00,
2013-01-08 22:32:00,52.2,51.6,0.00,SSW,192,0.0,0.0,98,0.08,,---,0.47,VWS V14.01,2013-01-09 06:32:00,
2013-01-08 22:37:00,52.2,51.6,0.00,SSW,206,0.0,0.0,98,0.04,,---,0.47,VWS V14.01,2013-01-09 06:37:00,
2013-01-08 22:42:00,52.2,51.6,0.00,SSW,195,3.1,3.1,98,0.08,,---,0.51,VWS V14.01,2013-01-09 06:42:00,
2013-01-08 22:47:00,52.0,51.4,0.00,WNW,298,0.0,0.0,98,0.08,,---,0.51,VWS V14.01,2013-01-09 06:47:00,
2013-01-08 22:52:00,52.0,51.4,0.00,WSW,258,5.4,5.4,98,0.08,,---,0.51,VWS V14.01,2013-01-09 06:52:00,
2013-01-08 22:57:00,52.0,51.4,0.00,SW,216,0.0,4.9,98,0.08,,---,0.51,VWS V14.01,2013-01-09 06:57:00,
2013-01-08 23:02:00,52.0,51.4,0.00,WSW,255,0.0,0.0,98,0.08,,---,0.51,VWS V14.01,2013-01-09 07:02:00,
2013-01-08 23:07:00,52.0,51.4,0.00,WSW,251,2.7,2.7,98,0.08,,---,0.51,VWS V14.01,2013-01-09 07:07:00,
2013-01-08 23:12:00,52.0,51.4,0.00,NW,319,3.1,3.1,98,0.04,,---,0.51,VWS V14.01,2013-01-09 07:12:00,
2013-01-08 23:17:00,52.0,51.4,0.00,West,270,0.0,3.1,98,0.08,,---,0.55,VWS V14.01,2013-01-09 07:17:00,
2013-01-08 23:22:00,52.0,51.4,0.00,SSW,206,0.0,0.0,98,0.08,,---,0.55,VWS V14.01,2013-01-09 07:22:00,
2013-01-08 23:27:00,52.0,51.4,0.00,West,267,0.0,0.0,98,0.08,,---,0.55,VWS V14.01,2013-01-09 07:27:00,
2013-01-08 23:32:00,52.0,51.4,0.00,West,281,4.5,4.5,98,0.08,,---,0.55,VWS V14.01,2013-01-09 07:32:00,
2013-01-08 23:37:00,52.0,51.4,0.00,West,271,3.6,3.6,98,0.08,,---,0.55,VWS V14.01,2013-01-09 07:37:00,
2013-01-08 23:42:00,52.0,51.4,0.00,West,277,2.7,2.7,98,0.04,,---,0.55,VWS V14.01,2013-01-09 07:42:00,
2013-01-08 23:47:00,52.0,51.4,0.00,WNW,286,0.0,0.0,98,0.04,,---,0.55,VWS V14.01,2013-01-09 07:47:00,
2013-01-08 23:52:00,51.8,51.3,0.00,West,275,0.0,3.1,98,0.08,,---,0.59,VWS V14.01,2013-01-09 07:52:00,
2013-01-08 23:57:00,51.8,51.3,0.00,WSW,239,3.1,3.1,98,0.08,,---,0.59,VWS V14.01,2013-01-09 07:57:00,